Time;durP1;ratioP1;P1;durP2;ratioP2;P2;SDS_P1;SDS_P2;PMS_P1;PMS_P2;Temp;Humidity;BMP_temperature;BMP_pressure;BME280_temperature;BME280_humidity;BME280_pressure;Samples;Min_cycle;Max_cycle;Signal;HPM_P1;HPM_P2
2023/10/05 00:01:24;;;;;;;3.53;3.23;;;;;;;6.19;100.00;97905.81;5073440;28;20199;-59
2023/10/05 00:03:52;;;;;;;3.53;3.23;;;;;;;6.18;100.00;97907.63;5070410;28;20360;-57
2023/10/05 00:06:24;;;;;;;3.30;3.03;;;;;;;6.21;100.00;97886.28;5074280;28;20228;-58
2023/10/05 00:08:53;;;;;;;3.43;3.23;;;;;;;6.22;100.00;97887.09;5073030;28;20836;-58
2023/10/05 00:11:29;;;;;;;3.10;2.90;;;;;;;6.25;100.00;97878.97;5071563;28;20854;-59
2023/10/05 00:13:58;;;;;;;4.50;3.30;;;;;;;6.21;100.00;97874.91;5072878;28;20304;-60
2023/10/05 00:16:36;;;;;;;3.20;3.00;;;;;;;6.17;100.00;97879.66;5075416;28;20261;-60
2023/10/05 00:19:08;;;;;;;3.07;2.87;;;;;;;6.15;100.00;97871.06;4942917;28;21265;-57
2023/10/05 00:21:36;;;;;;;3.50;3.20;;;;;;;6.14;100.00;97873.81;5074198;28;20686;-59
2023/10/05 00:24:06;;;;;;;4.20;3.60;;;;;;;6.14;100.00;97868.56;5069735;28;20402;-57
2023/10/05 00:26:34;;;;;;;6.33;4.50;;;;;;;6.16;100.00;97870.09;5072385;28;20299;-61
2023/10/05 00:29:12;;;;;;;4.63;4.17;;;;;;;6.13;100.00;97867.75;5012210;28;21099;-61
2023/10/05 00:31:41;;;;;;;4.13;3.73;;;;;;;6.11;100.00;97860.94;5072994;28;20205;-59
2023/10/05 00:34:13;;;;;;;4.50;3.80;;;;;;;6.02;100.00;97866.06;5070700;28;20203;-62
2023/10/05 00:36:44;;;;;;;5.20;4.80;;;;;;;6.08;100.00;97859.44;5072990;28;20233;-59
2023/10/05 00:39:11;;;;;;;4.13;3.87;;;;;;;6.06;100.00;97859.56;5072646;28;20312;-60
2023/10/05 00:41:39;;;;;;;3.10;2.90;;;;;;;6.00;100.00;97859.25;5075260;28;20206;-60
2023/10/05 00:44:07;;;;;;;3.00;2.80;;;;;;;5.97;100.00;97863.00;5068842;28;20298;-62
2023/10/05 00:46:38;;;;;;;4.30;3.90;;;;;;;5.90;100.00;97872.41;5075567;28;20222;-59
2023/10/05 00:49:14;;;;;;;4.20;3.90;;;;;;;5.88;100.00;97879.63;5069653;28;20906;-60
2023/10/05 00:51:49;;;;;;;4.63;4.23;;;;;;;5.86;100.00;97868.38;5076227;28;20627;-59
2023/10/05 00:54:28;;;;;;;3.77;2.70;;;;;;;5.86;100.00;97850.81;4947305;28;20364;-59
2023/10/05 00:56:56;;;;;;;3.17;2.97;;;;;;;5.78;100.00;97846.22;5072988;28;20257;-59
2023/10/05 00:59:25;;;;;;;3.40;2.70;;;;;;;5.74;100.00;97852.72;5018712;28;20345;-59
2023/10/05 01:02:04;;;;;;;3.77;3.10;;;;;;;5.73;100.00;97848.44;5071372;28;20210;-61
2023/10/05 01:04:52;;;;;;;3.03;2.77;;;;;;;5.61;100.00;97852.97;5072347;28;20198;-58
2023/10/05 01:07:29;;;;;;;4.03;2.90;;;;;;;5.60;100.00;97851.31;5036052;28;20224;-58
2023/10/05 01:12:43;;;;;;;3.57;3.27;;;;;;;5.52;100.00;97856.44;5069495;28;20205;-58
2023/10/05 01:15:15;;;;;;;4.23;3.23;;;;;;;5.46;100.00;97860.41;5070903;28;20271;-60
2023/10/05 01:17:43;;;;;;;3.70;2.90;;;;;;;5.50;100.00;97856.59;5069447;28;20337;-60
2023/10/05 01:20:22;;;;;;;3.10;2.90;;;;;;;5.47;100.00;97864.72;5069968;28;20241;-58
2023/10/05 01:22:54;;;;;;;3.03;2.83;;;;;;;5.43;100.00;97859.88;5070686;28;20316;-60
2023/10/05 01:25:25;;;;;;;3.67;3.47;;;;;;;5.43;100.00;97860.69;4993771;28;20947;-60
2023/10/05 01:27:54;;;;;;;2.97;2.77;;;;;;;5.46;100.00;97868.31;5069243;28;20290;-60
2023/10/05 01:30:22;;;;;;;3.60;3.30;;;;;;;5.47;100.00;97869.97;5019939;28;21647;-58
2023/10/05 01:32:50;;;;;;;3.60;3.30;;;;;;;5.47;100.00;97867.34;5069643;28;20199;-60
2023/10/05 01:35:19;;;;;;;4.00;3.60;;;;;;;5.49;100.00;97868.06;5070880;28;20932;-61
2023/10/05 01:37:51;;;;;;;3.43;3.13;;;;;;;5.46;100.00;97870.94;5069048;28;21513;-59
2023/10/05 01:40:25;;;;;;;3.40;3.10;;;;;;;5.47;100.00;97866.53;4937271;28;20223;-60
2023/10/05 01:42:54;;;;;;;3.30;3.03;;;;;;;5.48;100.00;97866.38;5070856;28;20810;-59
2023/10/05 01:45:28;;;;;;;3.70;3.43;;;;;;;5.43;100.00;97868.56;5072374;28;20264;-59
2023/10/05 01:47:56;;;;;;;3.57;3.27;;;;;;;5.39;100.00;97856.66;5073602;28;20212;-60
2023/10/05 01:50:26;;;;;;;4.30;4.00;;;;;;;5.37;100.00;97869.13;5070831;28;20199;-60
2023/10/05 01:53:01;;;;;;;3.87;3.40;;;;;;;5.36;100.00;97863.03;5067786;28;20898;-61
2023/10/05 01:55:31;;;;;;;2.90;2.80;;;;;;;5.34;100.00;97853.63;5006707;28;20213;-59
2023/10/05 01:58:00;;;;;;;3.07;2.87;;;;;;;5.33;100.00;97859.84;5071182;28;20883;-60
2023/10/05 02:00:27;;;;;;;4.23;3.23;;;;;;;5.35;100.00;97855.28;4940508;28;20246;-61
2023/10/05 02:02:56;;;;;;;3.70;3.33;;;;;;;5.33;100.00;97849.31;5074937;28;20271;-61
2023/10/05 02:05:24;;;;;;;4.10;3.40;;;;;;;5.32;100.00;97845.03;5019731;28;20268;-61
2023/10/05 02:07:51;;;;;;;3.60;3.30;;;;;;;5.30;100.00;97849.59;5070693;28;20227;-59
2023/10/05 02:10:20;;;;;;;3.80;3.50;;;;;;;5.32;100.00;97845.88;5068823;28;20203;-60
2023/10/05 02:12:54;;;;;;;3.23;3.00;;;;;;;5.28;100.00;97846.28;5072730;28;20217;-60
2023/10/05 02:15:28;;;;;;;3.13;2.93;;;;;;;5.27;100.00;97839.38;5070727;28;20194;-59
2023/10/05 02:18:02;;;;;;;3.73;3.53;;;;;;;5.24;100.00;97843.06;5072913;28;20295;-61
2023/10/05 02:20:45;;;;;;;3.50;3.20;;;;;;;5.19;100.00;97838.25;5068983;28;20222;-60
2023/10/05 02:23:25;;;;;;;3.83;3.53;;;;;;;5.15;100.00;97822.88;5070068;28;20289;-59
2023/10/05 02:26:07;;;;;;;3.63;3.33;;;;;;;5.21;100.00;97830.22;5068377;28;20421;-60
2023/10/05 02:28:38;;;;;;;4.13;3.20;;;;;;;5.20;100.00;97826.75;5074060;28;20295;-60
2023/10/05 02:31:12;;;;;;;3.57;3.27;;;;;;;5.26;100.00;97814.88;5070884;28;20754;-60
2023/10/05 02:33:43;;;;;;;3.60;3.30;;;;;;;5.29;100.00;97811.16;5074152;28;20197;-58
2023/10/05 02:36:17;;;;;;;4.03;3.67;;;;;;;5.27;100.00;97810.47;4946983;28;20226;-60
2023/10/05 02:38:53;;;;;;;3.60;3.40;;;;;;;5.26;100.00;97812.25;5066170;28;20206;-60
2023/10/05 02:41:25;;;;;;;3.70;3.40;;;;;;;5.31;100.00;97809.22;5069727;28;20220;-61
2023/10/05 02:43:53;;;;;;;3.33;3.13;;;;;;;5.28;100.00;97806.88;5076381;28;20205;-58
2023/10/05 02:46:24;;;;;;;4.97;2.97;;;;;;;5.29;100.00;97814.59;5070801;28;20226;-60
2023/10/05 02:48:52;;;;;;;3.90;2.87;;;;;;;5.26;100.00;97811.41;5073601;28;20225;-60
2023/10/05 02:51:20;;;;;;;3.00;2.83;;;;;;;5.15;100.00;97807.94;5072898;28;20237;-59
2023/10/05 02:53:55;;;;;;;3.90;3.37;;;;;;;5.18;100.00;97826.06;5072032;28;20191;-60
2023/10/05 02:56:27;;;;;;;3.37;3.10;;;;;;;5.13;100.00;97823.00;5070821;28;20232;-59
2023/10/05 02:58:57;;;;;;;3.20;3.00;;;;;;;5.12;100.00;97821.34;5079160;28;20202;-58
2023/10/05 03:01:26;;;;;;;3.37;3.10;;;;;;;5.16;100.00;97820.13;5069810;28;20514;-60
2023/10/05 03:03:56;;;;;;;3.17;2.80;;;;;;;5.17;100.00;97806.00;5073816;28;20199;-56
2023/10/05 03:06:23;;;;;;;3.77;3.00;;;;;;;5.13;100.00;97812.50;5070978;28;20325;-61
2023/10/05 03:08:54;;;;;;;3.63;3.33;;;;;;;5.11;100.00;97817.03;4939084;28;20305;-60
2023/10/05 03:11:22;;;;;;;3.00;2.80;;;;;;;5.08;100.00;97825.19;5072303;28;20198;-59
2023/10/05 03:13:50;;;;;;;2.87;2.70;;;;;;;5.09;100.00;97826.84;5070081;28;20290;-60
2023/10/05 03:16:21;;;;;;;3.07;2.80;;;;;;;5.07;100.00;97818.28;5074005;28;20283;-56
2023/10/05 03:18:50;;;;;;;3.10;2.90;;;;;;;5.07;100.00;97819.13;5073609;28;20656;-57
2023/10/05 03:21:18;;;;;;;3.07;2.77;;;;;;;5.01;100.00;97814.41;5071618;28;20214;-61
2023/10/05 03:23:46;;;;;;;3.23;3.03;;;;;;;5.03;100.00;97819.50;5063531;28;20216;-58
2023/10/05 03:26:18;;;;;;;3.03;2.87;;;;;;;5.01;100.00;97816.19;5071166;28;20233;-62
2023/10/05 03:28:46;;;;;;;4.87;3.33;;;;;;;5.02;100.00;97816.06;5072563;28;21178;-62
2023/10/05 03:31:15;;;;;;;2.87;2.70;;;;;;;5.03;100.00;97824.75;5074294;28;20281;-61
2023/10/05 03:33:43;;;;;;;3.10;2.90;;;;;;;4.97;100.00;97820.88;5071939;28;20210;-61
2023/10/05 03:36:15;;;;;;;3.40;3.17;;;;;;;4.97;100.00;97823.50;5069919;28;22969;-62
2023/10/05 03:38:43;;;;;;;5.53;3.93;;;;;;;4.97;100.00;97815.63;5070349;28;20199;-60
2023/10/05 03:41:15;;;;;;;5.10;3.53;;;;;;;5.04;100.00;97813.28;5072008;28;20218;-56
2023/10/05 03:43:47;;;;;;;4.03;3.63;;;;;;;5.08;100.00;97819.94;4961354;28;20214;-57
2023/10/05 03:46:17;;;;;;;3.60;3.40;;;;;;;5.06;100.00;97804.31;5069706;28;20627;-60
2023/10/05 03:48:45;;;;;;;3.97;3.67;;;;;;;5.10;100.00;97811.94;5064160;28;20233;-60
2023/10/05 03:51:15;;;;;;;4.40;4.10;;;;;;;5.03;100.00;97820.34;5072880;28;20230;-61
2023/10/05 03:53:48;;;;;;;4.03;3.73;;;;;;;5.06;100.00;97804.31;5072408;28;20788;-59
2023/10/05 03:56:19;;;;;;;3.70;3.40;;;;;;;5.08;100.00;97806.81;5069381;28;20223;-57
2023/10/05 03:58:48;;;;;;;6.07;3.90;;;;;;;5.08;100.00;97814.69;5071101;28;20305;-61
2023/10/05 04:01:17;;;;;;;6.37;3.97;;;;;;;5.09;100.00;97805.84;5004585;28;20600;-60
2023/10/05 04:03:47;;;;;;;5.10;4.57;;;;;;;5.04;100.00;97810.66;5073474;28;20639;-59
2023/10/05 04:06:18;;;;;;;4.03;3.73;;;;;;;4.99;100.00;97799.72;5069026;28;20808;-60
2023/10/05 04:08:49;;;;;;;4.37;4.03;;;;;;;5.01;100.00;97814.41;5071353;28;20198;-59
2023/10/05 04:11:18;;;;;;;5.07;4.50;;;;;;;5.05;100.00;97821.03;5061238;28;20301;-57
2023/10/05 04:13:46;;;;;;;4.40;4.00;;;;;;;5.01;100.00;97827.53;5074138;28;20259;-60
2023/10/05 04:16:24;;;;;;;5.03;4.53;;;;;;;4.95;100.00;97817.56;4948849;28;20234;-60
2023/10/05 04:18:52;;;;;;;4.40;4.00;;;;;;;4.85;100.00;97828.03;5071889;28;20477;-59
2023/10/05 04:21:22;;;;;;;4.50;4.10;;;;;;;4.86;100.00;97820.97;5066569;28;20214;-58
2023/10/05 04:23:52;;;;;;;5.27;4.57;;;;;;;4.86;100.00;97813.94;5009764;28;20206;-58
2023/10/05 04:26:21;;;;;;;4.67;4.20;;;;;;;4.73;100.00;97815.91;5071159;28;20791;-60
2023/10/05 04:28:54;;;;;;;6.60;4.20;;;;;;;4.78;100.00;97816.38;5067583;28;20214;-58
2023/10/05 04:31:25;;;;;;;4.40;4.00;;;;;;;4.79;100.00;97815.41;5073993;28;20635;-56
2023/10/05 04:33:55;;;;;;;4.60;4.23;;;;;;;4.84;100.00;97820.25;5073996;28;20198;-62
2023/10/05 04:36:23;;;;;;;4.23;3.93;;;;;;;4.81;100.00;97824.00;5071078;28;20226;-59
2023/10/05 04:38:54;;;;;;;4.77;4.37;;;;;;;4.82;100.00;97819.56;5070874;28;20655;-61
2023/10/05 04:41:28;;;;;;;4.10;3.80;;;;;;;4.83;100.00;97831.72;5074113;28;20314;-60
2023/10/05 04:43:57;;;;;;;5.60;4.30;;;;;;;4.76;100.00;97832.25;5068089;28;20202;-61
2023/10/05 04:46:25;;;;;;;4.50;4.10;;;;;;;4.75;100.00;97832.41;5074748;28;20619;-60
2023/10/05 04:49:07;;;;;;;4.20;3.90;;;;;;;4.72;100.00;97838.72;4941608;28;20218;-58
2023/10/05 04:51:38;;;;;;;3.70;3.40;;;;;;;4.72;100.00;97841.38;5070350;28;20746;-60
2023/10/05 04:54:10;;;;;;;4.70;3.63;;;;;;;4.67;100.00;97842.69;5067557;28;20289;-60
2023/10/05 04:56:43;;;;;;;6.07;3.93;;;;;;;4.67;100.00;97843.53;5075012;28;20226;-60
2023/10/05 04:59:37;;;;;;;6.23;3.63;;;;;;;4.64;100.00;97849.88;5001934;28;20954;-57
2023/10/05 05:02:18;;;;;;;3.90;3.60;;;;;;;4.63;100.00;97842.97;5073056;28;20210;-59
2023/10/05 05:05:21;;;;;;;4.03;3.73;;;;;;;4.69;100.00;97851.28;5030717;28;20216;-58
2023/10/05 05:07:52;;;;;;;4.17;3.87;;;;;;;4.74;100.00;97849.13;5072341;28;20428;-58
2023/10/05 05:10:22;;;;;;;4.53;4.13;;;;;;;4.80;100.00;97837.25;4989536;28;20820;-61
2023/10/05 05:12:50;;;;;;;4.73;4.33;;;;;;;4.86;100.00;97842.81;4964281;28;20262;-58
2023/10/05 05:15:18;;;;;;;4.30;3.93;;;;;;;4.84;100.00;97839.50;5071204;28;20206;-59
2023/10/05 05:17:45;;;;;;;3.70;3.40;;;;;;;4.92;100.00;97836.19;5000247;28;20344;-58
2023/10/05 05:20:15;;;;;;;3.57;3.27;;;;;;;4.96;100.00;97829.72;5072007;28;20202;-60
2023/10/05 05:22:46;;;;;;;3.70;3.50;;;;;;;4.98;100.00;97826.94;4943782;28;20286;-60
2023/10/05 05:25:17;;;;;;;3.30;3.07;;;;;;;4.90;100.00;97833.72;5069750;28;20205;-60
2023/10/05 05:27:46;;;;;;;3.70;3.50;;;;;;;4.92;100.00;97831.78;5022950;28;20237;-59
2023/10/05 05:30:24;;;;;;;3.10;2.90;;;;;;;4.87;100.00;97830.50;5072803;28;20198;-60
2023/10/05 05:32:54;;;;;;;3.13;2.93;;;;;;;4.87;100.00;97831.34;5070996;28;20665;-60
2023/10/05 05:35:22;;;;;;;3.80;3.53;;;;;;;4.91;100.00;97834.53;5071141;28;20275;-59
2023/10/05 05:37:50;;;;;;;13.93;11.80;;;;;;;4.84;100.00;97834.22;5067565;28;20222;-58
2023/10/05 05:40:18;;;;;;;6.20;5.70;;;;;;;4.88;100.00;97834.78;5073602;28;20267;-59
2023/10/05 05:42:47;;;;;;;3.57;3.37;;;;;;;4.86;100.00;97842.81;5067892;28;20218;-59
2023/10/05 05:45:16;;;;;;;4.13;3.83;;;;;;;4.91;100.00;97840.63;5070029;28;20688;-57
2023/10/05 05:47:45;;;;;;;4.07;3.77;;;;;;;4.87;100.00;97843.63;5016161;28;20257;-59
2023/10/05 05:50:17;;;;;;;3.80;3.50;;;;;;;4.79;100.00;97849.56;5071292;28;20269;-59
2023/10/05 05:52:47;;;;;;;4.30;3.97;;;;;;;4.79;100.00;97849.56;5064407;28;20676;-59
2023/10/05 05:55:20;;;;;;;4.70;3.77;;;;;;;4.86;100.00;97853.31;4966454;28;20218;-59
2023/10/05 05:57:51;;;;;;;4.57;4.00;;;;;;;4.71;100.00;97847.56;5075784;28;20293;-60
2023/10/05 06:00:19;;;;;;;4.17;3.87;;;;;;;4.79;100.00;97857.44;5018725;28;20313;-57
2023/10/05 06:02:47;;;;;;;4.37;4.00;;;;;;;4.89;100.00;97855.69;5072888;28;20312;-60
2023/10/05 06:05:16;;;;;;;4.27;3.87;;;;;;;4.72;100.00;97857.13;5069851;28;20206;-59
2023/10/05 06:07:44;;;;;;;4.87;4.37;;;;;;;4.77;100.00;97859.34;5075280;28;20283;-60
2023/10/05 06:10:13;;;;;;;4.57;3.63;;;;;;;4.68;100.00;97855.72;5072835;28;22208;-60
2023/10/05 06:12:44;;;;;;;4.53;4.13;;;;;;;4.70;100.00;97851.16;5078324;28;20289;-57
2023/10/05 06:15:14;;;;;;;3.87;3.67;;;;;;;4.88;100.00;97869.78;5015915;28;20293;-58
2023/10/05 06:17:43;;;;;;;3.70;3.40;;;;;;;5.03;100.00;97861.53;5074545;28;20229;-60
2023/10/05 06:20:14;;;;;;;3.97;3.57;;;;;;;5.23;100.00;97851.91;5023585;28;20214;-59
2023/10/05 06:22:44;;;;;;;4.93;3.97;;;;;;;5.24;100.00;97850.97;5075214;28;20337;-58
2023/10/05 06:25:15;;;;;;;4.73;4.33;;;;;;;5.14;100.00;97844.84;4958053;28;20210;-60
2023/10/05 06:27:44;;;;;;;7.40;6.10;;;;;;;5.14;100.00;97834.34;5076408;28;20222;-59
2023/10/05 06:30:13;;;;;;;8.40;6.90;;;;;;;5.39;100.00;97848.78;5074962;28;20205;-59
2023/10/05 06:32:42;;;;;;;6.43;5.40;;;;;;;5.50;100.00;97846.06;5073699;28;20204;-58
2023/10/05 06:35:12;;;;;;;4.80;4.40;;;;;;;5.61;100.00;97839.03;5013978;28;20344;-59
2023/10/05 06:37:40;;;;;;;4.73;4.30;;;;;;;5.52;100.00;97829.31;5076227;28;20245;-57
2023/10/05 06:40:12;;;;;;;4.27;3.97;;;;;;;5.75;100.00;97825.47;5072790;28;20770;-58
2023/10/05 06:42:41;;;;;;;3.80;3.50;;;;;;;5.78;100.00;97821.75;5071239;28;20248;-59
2023/10/05 06:45:11;;;;;;;4.33;3.97;;;;;;;5.95;100.00;97825.47;5070154;28;20206;-59
2023/10/05 06:47:40;;;;;;;4.33;3.93;;;;;;;6.05;100.00;97836.84;5072087;28;20252;-60
2023/10/05 06:50:09;;;;;;;4.47;4.10;;;;;;;6.20;100.00;97828.53;5071983;28;20831;-58
2023/10/05 06:52:40;;;;;;;4.63;4.33;;;;;;;6.32;100.00;97827.41;5074433;28;20340;-60
2023/10/05 06:55:09;;;;;;;4.90;4.50;;;;;;;6.49;100.00;97814.50;5071106;28;20198;-60
2023/10/05 06:57:37;;;;;;;6.53;5.97;;;;;;;6.58;100.00;97810.19;5072313;28;20222;-59
2023/10/05 07:00:11;;;;;;;6.40;4.50;;;;;;;6.65;100.00;97822.63;4947039;28;20207;-59
2023/10/05 07:02:41;;;;;;;4.57;4.20;;;;;;;6.83;100.00;97828.97;5073906;28;20253;-61
2023/10/05 07:05:10;;;;;;;5.40;5.00;;;;;;;7.14;100.00;97828.66;5069127;28;20209;-57
2023/10/05 07:07:38;;;;;;;4.30;4.00;;;;;;;7.19;100.00;97842.25;5076644;28;20218;-57
2023/10/05 07:10:08;;;;;;;5.03;4.53;;;;;;;7.24;100.00;97832.13;5016055;28;20211;-58
2023/10/05 07:12:38;;;;;;;4.90;4.40;;;;;;;7.34;100.00;97842.59;5073097;28;20198;-60
2023/10/05 07:15:07;;;;;;;4.77;4.43;;;;;;;7.70;100.00;97850.56;5070082;28;20297;-59
2023/10/05 07:17:35;;;;;;;4.37;4.03;;;;;;;7.98;100.00;97855.78;5074109;28;20523;-58
2023/10/05 07:20:11;;;;;;;5.43;4.97;;;;;;;8.06;100.00;97862.94;5072301;28;20430;-59
2023/10/05 07:22:40;;;;;;;21.03;8.17;;;;;;;8.18;100.00;97863.56;5072661;28;20253;-60
2023/10/05 07:25:10;;;;;;;7.97;5.07;;;;;;;8.28;100.00;97858.16;5025063;28;20494;-58
2023/10/05 07:27:39;;;;;;;4.50;4.20;;;;;;;8.52;100.00;97865.47;5008068;28;20214;-58
2023/10/05 07:30:09;;;;;;;4.93;4.53;;;;;;;8.67;100.00;97847.25;5072764;28;20233;-61
2023/10/05 07:32:38;;;;;;;4.70;4.30;;;;;;;8.93;100.00;97847.28;4944086;28;20209;-58
2023/10/05 07:35:08;;;;;;;7.33;4.73;;;;;;;8.98;100.00;97844.97;5010666;28;20593;-55
2023/10/05 07:37:36;;;;;;;7.87;4.73;;;;;;;9.09;100.00;97828.03;5073450;28;20223;-59
2023/10/05 07:40:05;;;;;;;4.67;4.17;;;;;;;9.10;100.00;97818.25;5014789;28;20665;-57
2023/10/05 07:42:37;;;;;;;5.40;4.90;;;;;;;9.12;100.00;97842.72;5071470;28;20268;-56
2023/10/05 07:45:07;;;;;;;4.67;4.23;;;;;;;9.18;100.00;97849.19;5069245;28;20205;-59
2023/10/05 07:47:41;;;;;;;4.67;4.33;;;;;;;9.51;100.00;97849.31;5070408;28;20776;-57
2023/10/05 07:50:10;;;;;;;5.23;4.80;;;;;;;9.67;100.00;97844.06;5070434;28;20252;-58
2023/10/05 07:52:38;;;;;;;5.30;4.80;;;;;;;9.81;100.00;97857.66;5074889;28;20773;-57
2023/10/05 07:55:08;;;;;;;6.33;4.57;;;;;;;10.10;100.00;97848.44;5022783;28;20198;-60
2023/10/05 07:57:36;;;;;;;5.77;5.17;;;;;;;10.18;100.00;97860.84;5071678;28;20213;-61
2023/10/05 08:00:06;;;;;;;5.67;4.40;;;;;;;10.16;100.00;97853.06;5068956;28;20199;-58
2023/10/05 08:02:33;;;;;;;5.07;4.63;;;;;;;10.54;100.00;97863.19;5073887;28;20218;-59
2023/10/05 08:05:01;;;;;;;5.40;4.23;;;;;;;10.60;100.00;97861.69;4944489;28;20322;-57
2023/10/05 08:07:30;;;;;;;4.40;4.00;;;;;;;10.68;100.00;97867.81;5069757;28;20275;-56
2023/10/05 08:09:59;;;;;;;3.83;3.53;;;;;;;10.93;100.00;97862.47;5069167;28;20593;-59
2023/10/05 08:12:27;;;;;;;6.53;4.23;;;;;;;10.95;100.00;97862.28;5069809;28;20673;-58
2023/10/05 08:14:55;;;;;;;4.37;3.97;;;;;;;11.29;100.00;97861.19;5015610;28;20308;-60
2023/10/05 08:17:23;;;;;;;4.90;4.30;;;;;;;11.71;100.00;97864.50;5008255;28;20222;-55
2023/10/05 08:19:52;;;;;;;4.60;4.20;;;;;;;11.73;100.00;97870.44;5076874;28;20254;-55
2023/10/05 08:22:20;;;;;;;4.73;4.07;;;;;;;11.67;100.00;97863.19;5066251;28;20227;-55
2023/10/05 08:24:51;;;;;;;4.83;4.27;;;;;;;11.55;100.00;97860.94;5075902;28;20297;-62
2023/10/05 08:27:19;;;;;;;4.47;4.07;;;;;;;11.24;100.00;97866.19;5021955;28;20517;-55
2023/10/05 08:29:48;;;;;;;4.50;4.10;;;;;;;11.26;100.00;97862.38;5068904;28;21141;-59
2023/10/05 08:32:16;;;;;;;4.57;4.17;;;;;;;11.28;100.00;97860.38;5063843;28;20202;-60
2023/10/05 08:34:45;;;;;;;4.40;3.70;;;;;;;11.56;100.00;97859.09;5070348;28;20225;-61
2023/10/05 08:37:13;;;;;;;4.40;4.10;;;;;;;11.73;100.00;97863.28;4938637;28;20770;-59
2023/10/05 08:39:42;;;;;;;4.93;4.50;;;;;;;11.64;100.00;97861.69;5072009;28;20221;-58
2023/10/05 08:42:11;;;;;;;5.07;4.33;;;;;;;11.77;100.00;97869.09;5068790;28;20270;-59
2023/10/05 08:44:42;;;;;;;4.07;3.77;;;;;;;11.98;100.00;97878.28;5068322;28;20247;-59
2023/10/05 08:47:10;;;;;;;5.30;4.80;;;;;;;12.05;100.00;97873.09;5016383;28;20222;-60
2023/10/05 08:49:39;;;;;;;4.70;4.17;;;;;;;12.44;100.00;97870.31;5072703;28;20257;-57
2023/10/05 08:52:13;;;;;;;4.33;4.03;;;;;;;12.39;100.00;97872.69;5070362;28;20202;-56
2023/10/05 08:54:41;;;;;;;4.27;3.97;;;;;;;12.45;100.00;97869.31;5072445;28;20835;-59
2023/10/05 08:57:11;;;;;;;4.23;3.93;;;;;;;12.51;100.00;97869.59;5070304;28;20308;-59
2023/10/05 08:59:39;;;;;;;4.67;4.20;;;;;;;12.53;100.00;97860.47;5075178;28;20206;-60
2023/10/05 09:02:08;;;;;;;4.97;4.50;;;;;;;12.87;100.00;97859.09;5021671;28;20214;-59
2023/10/05 09:04:44;;;;;;;5.10;4.70;;;;;;;12.91;100.00;97853.47;5075653;28;20232;-57
2023/10/05 09:07:27;;;;;;;4.50;4.10;;;;;;;12.94;100.00;97853.09;5069524;28;20225;-57
2023/10/05 09:09:55;;;;;;;4.87;4.47;;;;;;;12.84;100.00;97850.69;5074963;28;20659;-56
2023/10/05 09:12:34;;;;;;;4.40;4.20;;;;;;;13.01;100.00;97846.84;4943693;28;20705;-59
2023/10/05 09:15:08;;;;;;;4.40;4.00;;;;;;;13.20;100.00;97867.75;5074789;28;20205;-58
2023/10/05 09:17:36;;;;;;;5.67;4.93;;;;;;;12.96;100.00;97843.91;5012480;28;20321;-57
2023/10/05 09:20:21;;;;;;;4.53;3.97;;;;;;;13.44;100.00;97851.53;5067735;28;20198;-59
2023/10/05 09:22:49;;;;;;;3.97;3.67;;;;;;;13.53;100.00;97862.06;5017659;28;20995;-61
2023/10/05 09:25:17;;;;;;;4.30;3.73;;;;;;;13.55;100.00;97860.88;5072436;28;20295;-60
2023/10/05 09:27:50;;;;;;;3.77;3.43;;;;;;;13.96;100.00;97872.78;5066530;28;20226;-59
2023/10/05 09:30:21;;;;;;;4.47;3.70;;;;;;;14.06;100.00;97869.81;5072203;28;20341;-61
2023/10/05 09:32:49;;;;;;;3.30;3.00;;;;;;;14.24;100.00;97863.25;5068961;28;20841;-61
2023/10/05 09:35:27;;;;;;;3.43;3.10;;;;;;;14.46;100.00;97845.38;5073547;28;20656;-60
2023/10/05 09:37:58;;;;;;;4.17;3.33;;;;;;;14.29;100.00;97850.16;5034717;28;20245;-58
2023/10/05 09:40:28;;;;;;;3.47;3.17;;;;;;;14.58;100.00;97859.84;5075680;28;20708;-58
2023/10/05 09:43:00;;;;;;;5.17;3.63;;;;;;;14.68;100.00;97851.50;5073750;28;20316;-59
2023/10/05 09:45:31;;;;;;;7.13;3.67;;;;;;;14.82;100.00;97856.97;5043459;28;20722;-58
2023/10/05 09:48:00;;;;;;;4.90;3.83;;;;;;;15.14;100.00;97852.03;4998815;28;20198;-57
2023/10/05 09:50:30;;;;;;;3.93;3.57;;;;;;;15.09;100.00;97855.28;5070131;28;20216;-59
2023/10/05 09:53:01;;;;;;;3.57;3.27;;;;;;;15.10;100.00;97854.25;5031249;28;20233;-60
2023/10/05 09:55:30;;;;;;;4.07;3.10;;;;;;;15.77;100.00;97848.41;5076454;28;20198;-60
2023/10/05 09:58:05;;;;;;;4.80;3.97;;;;;;;16.07;100.00;97845.41;5076957;28;20711;-59
2023/10/05 10:03:27;;;;;;;4.77;3.33;;;;;;;16.01;100.00;97847.03;5118861;27;20573;-61
2023/10/05 10:05:59;;;;;;;3.00;2.80;;;;;;;16.49;100.00;97850.59;5092843;28;20313;-57
2023/10/05 10:08:29;;;;;;;5.67;3.33;;;;;;;16.57;100.00;97836.19;5096965;28;20201;-59
2023/10/05 10:11:04;;;;;;;3.53;3.20;;;;;;;16.62;100.00;97834.53;5046058;28;21012;-59
2023/10/05 10:13:37;;;;;;;3.23;2.93;;;;;;;16.53;100.00;97832.28;5095940;28;20197;-58
2023/10/05 10:16:17;;;;;;;4.33;3.07;;;;;;;16.05;100.00;97839.44;4968369;28;21107;-59
2023/10/05 10:18:46;;;;;;;4.37;3.40;;;;;;;16.24;100.00;97834.31;5099234;28;20291;-59
2023/10/05 10:21:24;;;;;;;4.20;3.00;;;;;;;15.91;100.00;97834.06;5038301;28;21003;-58
2023/10/05 10:24:00;;;;;;;7.57;3.80;;;;;;;15.80;100.00;97828.47;5096701;28;20204;-60
2023/10/05 10:26:29;;;;;;;5.70;3.07;;;;;;;15.67;100.00;97835.41;5098182;28;20221;-59
2023/10/05 10:28:59;;;;;;;4.60;3.37;;;;;;;15.92;100.00;97834.91;5093426;28;20233;-59
2023/10/05 10:31:31;;;;;;;5.20;3.20;;;;;;;16.12;100.00;97840.28;5096349;28;20201;-58
2023/10/05 10:34:11;;;;;;;4.83;4.00;;;;;;;16.11;100.00;97843.16;5100165;27;20680;-55
2023/10/05 10:36:52;;;;;;;5.80;3.83;;;;;;;15.97;100.00;97831.59;5089923;28;20659;-56
2023/10/05 10:39:24;;;;;;;5.57;3.90;;;;;;;16.06;100.00;97825.88;5095968;28;20205;-60
2023/10/05 10:42:01;;;;;;;6.67;4.73;;;;;;;15.90;100.00;97824.41;5041888;28;20228;-56
2023/10/05 10:44:41;;;;;;;9.57;4.10;;;;;;;15.93;100.00;97827.69;5097447;28;20289;-60
2023/10/05 10:47:11;;;;;;;5.20;3.80;;;;;;;15.75;100.00;97808.50;5097144;28;20431;-53
2023/10/05 10:49:40;;;;;;;6.07;4.20;;;;;;;15.47;100.00;97804.13;5095539;28;20719;-59
2023/10/05 10:52:10;;;;;;;5.47;3.60;;;;;;;15.58;100.00;97812.59;4963053;28;20219;-55
2023/10/05 10:54:48;;;;;;;4.67;4.20;;;;;;;15.54;100.00;97812.16;5103457;28;20229;-56
2023/10/05 10:57:21;;;;;;;4.33;3.37;;;;;;;15.68;100.00;97797.00;5037573;27;20226;-57
2023/10/05 11:00:36;;;;;;;8.43;4.53;;;;;;;15.85;100.00;97799.28;5094873;27;20677;-58
2023/10/05 11:02:38;;;;;;;5.17;3.93;;;;;;;15.95;100.00;97806.94;5090752;28;20230;-58
2023/10/05 11:05:15;;;;;;;8.43;4.27;;;;;;;15.82;100.00;97795.19;5096954;28;20193;-59
2023/10/05 11:07:46;;;;;;;7.03;3.90;;;;;;;15.79;100.00;97806.28;5094353;28;20933;-55
2023/10/05 11:10:19;;;;;;;6.10;3.93;;;;;;;15.59;100.00;97798.22;5100579;28;20210;-57
2023/10/05 11:12:53;;;;;;;6.90;4.87;;;;;;;15.63;100.00;97800.25;5092906;28;20234;-60
2023/10/05 11:15:28;;;;;;;5.20;4.23;;;;;;;15.59;100.00;97795.53;5083171;28;20197;-58
2023/10/05 11:17:59;;;;;;;6.17;4.67;;;;;;;15.78;100.00;97796.63;5044775;28;20298;-60
2023/10/05 11:20:33;;;;;;;6.57;5.00;;;;;;;16.08;100.00;97809.63;5009694;28;20701;-59
2023/10/05 11:23:03;;;;;;;6.30;3.80;;;;;;;15.95;100.00;97810.44;5084624;28;20221;-59
2023/10/05 11:25:34;;;;;;;9.37;4.27;;;;;;;16.05;100.00;97804.69;4950479;28;20211;-59
2023/10/05 11:28:08;;;;;;;5.63;4.13;;;;;;;15.88;98.81;97807.75;5081726;28;20214;-60
2023/10/05 11:30:42;;;;;;;6.47;4.93;;;;;;;15.77;96.08;97811.81;5024809;28;20212;-60
2023/10/05 11:33:34;;;;;;;8.27;4.67;;;;;;;16.10;95.92;97804.09;5083635;28;20221;-58
2023/10/05 11:36:27;;;;;;;6.13;4.93;;;;;;;16.50;92.83;97801.41;5077131;28;20222;-60
2023/10/05 11:38:57;;;;;;;8.80;5.50;;;;;;;16.40;93.87;97804.50;5085753;28;20194;-58
2023/10/05 11:41:28;;;;;;;6.60;5.33;;;;;;;15.98;90.45;97791.34;5082151;28;20287;-60
2023/10/05 11:43:58;;;;;;;10.40;6.73;;;;;;;16.47;95.24;97791.94;5079314;28;20226;-57
2023/10/05 11:46:42;;;;;;;6.03;5.13;;;;;;;16.61;88.95;97792.75;5075450;28;20588;-58
2023/10/05 11:49:10;;;;;;;8.17;5.40;;;;;;;16.68;90.77;97797.28;5085676;28;20555;-60
2023/10/05 11:51:42;;;;;;;10.07;5.37;;;;;;;16.74;89.97;97799.13;5027035;28;20313;-59
2023/10/05 11:54:10;;;;;;;8.27;5.57;;;;;;;16.70;91.68;97789.88;5084015;28;20247;-58
2023/10/05 11:56:38;;;;;;;9.13;5.60;;;;;;;16.71;90.06;97795.00;5080002;28;21060;-59